Accueil
METAR-TAF:

METAR-TAF

Aéroports :

Clermont-Ferrand, France

Aéroport de Clermont-Ferrand Auvergne

latitude: 45-47N, longitude: 003-10E, altitude: 332 m

Observation

Le bulletin a été fait il y a 38 minutes, à 23:30 UTC
Vent 4 kt de sud-est, variant entre est et sud
Température 20°C
Humidité 46%
Pression 1016 hPa
Visibilité 10 km ou plus
pas de nuages en-dessous de 1500 mètres et pas de cumulonimbus.

METAR: LFLC 282330Z AUTO 14004KT 100V180 CAVOK 20/08 Q1016 NOSIG

Heure: 02:08 (00:08 UTC)

Prévision

Le bulletin a été fait il y a 4 heures et 8 minutes, à 20:00 UTC
Prévision valable du 28 à 21 UTC au 29 à 21 UTC
Vent 10 kt de sud
Visibilité 10 km ou plus
pas de nuages en-dessous de 1500 mètres et pas de cumulonimbus.
Evoluant progressivement
du 29 à 08 UTC au 29 à 10 UTC
Vent 5 kt de est/nord-est

TAF: LFLC 282000Z 2821/2921 18010KT CAVOK BECMG 2908/2910 06005KT

Observations et prévisions météorologiques de plus de 4000 aéroports (messages METAR et TAF).

Les stations disponibles sont représentées par des disques jaunes et rouges sur la carte.

Passer la souris dessus pour voir le nom de la station.

Cliquer dessus pour voir les observations et prévisions météorologiques.

Pour changer de carte: cliquez sur les boutons verts avec une croix noire pour zoomer, sur le bouton vert avec un tiret pour effectuer un zoom arrière, ou sur les flèches vertes pour les cartes adjacentes.


METAR-TAF: